Clutier, Iowa
Current Conditions -  °F | °C
As of 6:15 PM on Wednesday 28 Jan 2015 (Local Time) from KVTI Reporting Station
Clear Clear  
Wind Chill: 31°   Ceiling: Unl
Heat Index: 37°   Visibility: 10mi
Dew Point: 31°   Wind: 7mph
Humidity: 82%   Direction: 130°SE
Pressure: 29.8"   Gusts: NA
Location:  42.08°N, 92.4°W
Report Text: KVTI 290015Z AUTO 13006KT 10SM CLR 03/00 A2980 RMK AO2 T00251003
Loading
Personal Weather Stations






























Interactive Weather Map New forecast layout! Learn more

10-Day Weather Forecast

Advertisements
Track Severe Weather on mobile